Terminal Aerodrome Forecast
Issued by NWS

Current Version | Previous Version | Text Only | Print | Product List | Glossary On
Versions: 1 2 3 4 5 6 7 8 9 10 11 12 13 14 15
000
FTUS44 KLIX 021721
TAFHUM
TAF
KHUM 021721Z 0218/0318 08011KT P6SM BKN090
     FM030100 07007KT P6SM SCT030 BKN090 PROB30 0306/0312 4SM -SHRA
      OVC025
     FM031300 08011KT P6SM VCSH SCT025 OVC050
      TEMPO 0314/0318 4SM -SHRA OVC025=

USA.gov is the U.S. government's official web portal to all federal, state and local government web resources and services.